Time;durP1;ratioP1;P1;durP2;ratioP2;P2;SDS_P1;SDS_P2;PMS_P1;PMS_P2;Temp;Humidity;BMP_temperature;BMP_pressure;BME280_temperature;BME280_humidity;BME280_pressure;Samples;Min_cycle;Max_cycle;Signal;HPM_P1;HPM_P2
2021/09/03 00:01:51;;;;;;;12.20;8.97;;;16.50;77.40;;;;;;4946862;28;20474;-44
2021/09/03 00:04:18;;;;;;;12.83;9.63;;;16.40;77.40;;;;;;4946449;28;20470;-44
2021/09/03 00:06:45;;;;;;;13.83;8.70;;;16.40;77.40;;;;;;4944299;28;20962;-44
2021/09/03 00:09:12;;;;;;;10.90;7.93;;;16.40;77.40;;;;;;4946508;28;20489;-44
2021/09/03 00:11:39;;;;;;;11.27;7.80;;;16.40;77.40;;;;;;4942988;28;20473;-44
2021/09/03 00:14:06;;;;;;;12.13;8.30;;;16.40;77.40;;;;;;4934761;28;21013;-44
2021/09/03 00:16:32;;;;;;;10.00;7.77;;;16.40;77.50;;;;;;4930735;29;20556;-43
2021/09/03 00:18:59;;;;;;;9.00;7.50;;;16.30;77.60;;;;;;4930752;29;20459;-43
2021/09/03 00:21:26;;;;;;;11.00;8.60;;;16.30;77.70;;;;;;4924967;29;20452;-43
2021/09/03 00:23:52;;;;;;;10.10;8.17;;;16.30;77.70;;;;;;4932363;29;20503;-43
2021/09/03 00:26:19;;;;;;;10.23;7.27;;;16.30;77.80;;;;;;4920692;29;20663;-43
2021/09/03 00:28:46;;;;;;;11.67;8.37;;;16.30;77.80;;;;;;4928980;29;20953;-43
2021/09/03 00:31:12;;;;;;;11.40;7.90;;;16.20;77.90;;;;;;4931462;29;20464;-44
2021/09/03 00:33:39;;;;;;;11.90;8.07;;;16.20;78.00;;;;;;4923273;29;20471;-43
2021/09/03 00:36:06;;;;;;;14.33;7.87;;;16.20;78.00;;;;;;4926772;28;21017;-43
2021/09/03 00:38:33;;;;;;;11.33;8.00;;;16.20;78.20;;;;;;4930909;29;20451;-43
2021/09/03 00:41:00;;;;;;;9.83;7.87;;;16.20;78.10;;;;;;4934100;29;20496;-43
2021/09/03 00:43:28;;;;;;;9.37;7.40;;;16.20;78.20;;;;;;4929871;28;21100;-43
2021/09/03 00:45:56;;;;;;;9.70;7.73;;;16.20;78.20;;;;;;4934301;29;20464;-43
2021/09/03 00:48:23;;;;;;;11.20;8.33;;;16.10;78.30;;;;;;4930889;29;20484;-43
2021/09/03 00:50:52;;;;;;;9.60;7.70;;;16.10;78.40;;;;;;4934703;29;20460;-43
2021/09/03 00:53:19;;;;;;;11.30;8.10;;;16.10;78.50;;;;;;4936172;29;20828;-43
2021/09/03 00:55:46;;;;;;;8.70;7.80;;;16.00;78.50;;;;;;4930315;28;20476;-43
2021/09/03 00:58:13;;;;;;;9.73;7.37;;;16.00;78.60;;;;;;4931213;29;20676;-43
2021/09/03 01:00:40;;;;;;;11.17;7.20;;;16.00;78.70;;;;;;4933459;29;20858;-44
2021/09/03 01:03:07;;;;;;;9.33;6.90;;;16.00;78.70;;;;;;4934431;29;20876;-43
2021/09/03 01:05:34;;;;;;;12.33;9.00;;;16.00;78.80;;;;;;4931036;29;20915;-43
2021/09/03 01:08:01;;;;;;;10.60;7.93;;;16.00;78.70;;;;;;4934671;29;20471;-43
2021/09/03 01:10:27;;;;;;;8.43;7.20;;;16.00;78.80;;;;;;4930563;29;20468;-43
2021/09/03 01:12:54;;;;;;;9.93;8.10;;;16.00;78.90;;;;;;4926944;29;20487;-44
2021/09/03 01:15:21;;;;;;;10.23;7.70;;;16.00;78.90;;;;;;4926351;29;20854;-43
2021/09/03 01:17:47;;;;;;;8.33;7.47;;;15.90;78.90;;;;;;4930827;29;20468;-43
2021/09/03 01:20:14;;;;;;;9.90;8.17;;;15.90;78.90;;;;;;4930651;29;20500;-43
2021/09/03 01:22:41;;;;;;;11.53;7.60;;;15.90;78.90;;;;;;4928667;29;20990;-43
2021/09/03 01:25:09;;;;;;;9.10;7.67;;;15.90;78.90;;;;;;4932978;29;20960;-43
2021/09/03 01:27:36;;;;;;;9.90;6.93;;;15.90;78.90;;;;;;4936777;29;20470;-43
2021/09/03 01:30:09;;;;;;;12.63;7.77;;;15.90;79.00;;;;;;4933655;29;20463;-43
2021/09/03 01:32:36;;;;;;;12.17;8.80;;;15.90;79.00;;;;;;4932800;29;20475;-43
2021/09/03 01:35:03;;;;;;;15.30;7.80;;;15.80;79.00;;;;;;4930739;29;20830;-43
2021/09/03 01:37:30;;;;;;;14.17;8.33;;;15.80;79.00;;;;;;4936562;28;20946;-43
2021/09/03 01:39:56;;;;;;;10.00;7.77;;;15.80;79.00;;;;;;4925050;29;20510;-43
2021/09/03 01:42:23;;;;;;;9.67;7.90;;;15.80;79.10;;;;;;4927206;29;20460;-43
2021/09/03 01:44:50;;;;;;;9.57;7.60;;;15.70;79.00;;;;;;4926967;29;20464;-43
2021/09/03 01:47:16;;;;;;;11.30;7.80;;;15.70;79.00;;;;;;4932845;29;20478;-43
2021/09/03 01:49:43;;;;;;;9.90;8.73;;;15.70;79.00;;;;;;4928944;29;20856;-43
2021/09/03 01:52:10;;;;;;;11.10;7.47;;;15.70;79.10;;;;;;4929012;29;20468;-43
2021/09/03 01:54:36;;;;;;;9.93;8.20;;;15.70;79.20;;;;;;4931481;29;20873;-43
2021/09/03 01:57:03;;;;;;;12.17;8.00;;;15.60;79.20;;;;;;4932571;29;21095;-43
2021/09/03 01:59:30;;;;;;;9.93;7.70;;;15.60;79.30;;;;;;4933507;28;20506;-43
2021/09/03 02:01:57;;;;;;;7.83;7.03;;;15.60;79.40;;;;;;4932844;29;20461;-44
2021/09/03 02:04:24;;;;;;;10.40;8.23;;;15.60;79.40;;;;;;4929592;29;20492;-44
2021/09/03 02:06:50;;;;;;;10.53;7.57;;;15.60;79.50;;;;;;4928405;29;20464;-44
2021/09/03 02:09:17;;;;;;;8.77;7.30;;;15.60;79.50;;;;;;4928281;29;20459;-44
2021/09/03 02:11:46;;;;;;;8.03;7.20;;;15.60;79.60;;;;;;4929105;29;20463;-44
2021/09/03 02:14:13;;;;;;;11.63;9.17;;;15.50;79.50;;;;;;4922742;29;20479;-44
2021/09/03 02:16:40;;;;;;;8.63;7.33;;;15.50;79.60;;;;;;4932939;29;20815;-45
2021/09/03 02:19:07;;;;;;;9.63;8.13;;;15.50;79.60;;;;;;4928994;29;20472;-44
2021/09/03 02:21:34;;;;;;;10.30;7.60;;;15.50;79.70;;;;;;4929921;29;20500;-44
2021/09/03 02:24:01;;;;;;;11.17;9.10;;;15.50;79.80;;;;;;4932547;29;20849;-43
2021/09/03 02:26:27;;;;;;;10.80;7.50;;;15.50;79.90;;;;;;4928026;29;20463;-43
2021/09/03 02:28:54;;;;;;;10.13;7.00;;;15.50;79.90;;;;;;4928900;29;20468;-43
2021/09/03 02:31:21;;;;;;;9.43;7.53;;;15.50;80.00;;;;;;4931317;29;20466;-42
2021/09/03 02:33:48;;;;;;;10.10;8.30;;;15.40;80.10;;;;;;4930459;29;20492;-43
2021/09/03 02:36:15;;;;;;;10.73;7.90;;;15.40;80.20;;;;;;4929869;29;20547;-43
2021/09/03 02:38:43;;;;;;;9.63;7.97;;;15.40;80.20;;;;;;4923572;28;20478;-43
2021/09/03 02:41:10;;;;;;;12.13;8.10;;;15.30;80.20;;;;;;4930855;29;20575;-43
2021/09/03 02:43:37;;;;;;;14.03;7.07;;;15.30;80.20;;;;;;4928522;28;20969;-44
2021/09/03 02:46:04;;;;;;;14.03;8.43;;;15.40;80.20;;;;;;4925570;29;20551;-44
2021/09/03 02:48:31;;;;;;;10.53;7.37;;;15.30;80.10;;;;;;4921537;29;20453;-43
2021/09/03 02:50:57;;;;;;;11.50;8.77;;;15.30;80.20;;;;;;4929253;29;20468;-44
2021/09/03 02:53:24;;;;;;;9.93;7.03;;;15.30;80.10;;;;;;4932529;28;20459;-44
2021/09/03 02:55:51;;;;;;;10.10;7.47;;;15.30;80.20;;;;;;4926791;29;20463;-44
2021/09/03 02:58:17;;;;;;;10.73;8.50;;;15.30;80.10;;;;;;4929845;29;20467;-44
2021/09/03 03:00:44;;;;;;;9.97;7.40;;;15.30;80.20;;;;;;4924949;29;20484;-44
2021/09/03 03:03:11;;;;;;;8.33;6.80;;;15.30;80.20;;;;;;4933052;29;20452;-44
2021/09/03 03:05:38;;;;;;;9.13;7.43;;;15.20;80.30;;;;;;4922152;29;20487;-44
2021/09/03 03:08:05;;;;;;;14.97;8.10;;;15.30;80.30;;;;;;4928726;29;20460;-44
2021/09/03 03:10:33;;;;;;;9.30;7.90;;;15.30;80.30;;;;;;4925317;29;20467;-44
2021/09/03 03:13:06;;;;;;;10.77;8.00;;;15.20;80.30;;;;;;4930070;29;20511;-44
2021/09/03 03:15:33;;;;;;;9.83;7.63;;;15.20;80.30;;;;;;4933250;29;20479;-44
2021/09/03 03:17:59;;;;;;;10.40;7.93;;;15.20;80.30;;;;;;4931516;29;20990;-44
2021/09/03 03:20:26;;;;;;;8.53;6.93;;;15.20;80.30;;;;;;4929613;29;20498;-44
2021/09/03 03:22:53;;;;;;;10.17;7.80;;;15.20;80.30;;;;;;4927982;29;20951;-44
2021/09/03 03:25:20;;;;;;;12.67;8.47;;;15.10;80.30;;;;;;4928170;29;20584;-44
2021/09/03 03:27:46;;;;;;;9.83;7.63;;;15.10;80.40;;;;;;4926672;29;20464;-44
2021/09/03 03:30:17;;;;;;;9.53;8.00;;;15.10;80.40;;;;;;4926121;29;20479;-44
2021/09/03 03:32:44;;;;;;;10.93;7.60;;;15.10;80.40;;;;;;4923957;29;20510;-44
2021/09/03 03:35:11;;;;;;;12.87;7.80;;;15.10;80.20;;;;;;4925743;29;20464;-45
2021/09/03 03:37:40;;;;;;;12.93;8.57;;;15.10;80.20;;;;;;4926861;29;20474;-45
2021/09/03 03:40:07;;;;;;;10.93;8.33;;;15.00;80.30;;;;;;4924053;29;20500;-45
2021/09/03 03:42:34;;;;;;;11.23;8.37;;;15.00;80.30;;;;;;4928319;29;20466;-44
2021/09/03 03:45:01;;;;;;;12.60;8.30;;;15.00;80.40;;;;;;4923580;29;20819;-44
2021/09/03 03:47:28;;;;;;;13.47;7.73;;;15.00;80.40;;;;;;4928958;29;20966;-45
2021/09/03 03:49:55;;;;;;;9.00;7.97;;;15.00;80.60;;;;;;4924056;29;20472;-44
2021/09/03 03:52:21;;;;;;;11.47;7.80;;;15.00;80.60;;;;;;4928508;29;20464;-45
2021/09/03 03:54:48;;;;;;;11.60;9.03;;;15.00;80.60;;;;;;4922735;29;20466;-45
2021/09/03 03:57:15;;;;;;;10.33;8.20;;;14.90;80.60;;;;;;4923212;29;20946;-44
2021/09/03 03:59:41;;;;;;;9.20;7.60;;;14.90;80.70;;;;;;4927836;29;20467;-45
2021/09/03 04:02:08;;;;;;;8.97;7.23;;;14.90;80.70;;;;;;4925568;29;20473;-44
2021/09/03 04:04:35;;;;;;;9.87;7.27;;;14.90;80.60;;;;;;4925940;29;20471;-44
2021/09/03 04:07:02;;;;;;;12.13;7.77;;;14.90;80.50;;;;;;4927682;29;20468;-45
2021/09/03 04:09:29;;;;;;;12.27;7.40;;;14.90;80.50;;;;;;4925775;29;20459;-45
2021/09/03 04:11:56;;;;;;;9.97;8.10;;;14.90;80.50;;;;;;4921844;29;20814;-45
2021/09/03 04:14:22;;;;;;;10.70;8.43;;;14.90;80.60;;;;;;4926712;29;20484;-45
2021/09/03 04:16:49;;;;;;;9.37;8.07;;;14.90;80.60;;;;;;4921211;29;20560;-44
2021/09/03 04:19:16;;;;;;;13.50;8.37;;;14.80;80.80;;;;;;4926645;29;21124;-45
2021/09/03 04:21:43;;;;;;;14.13;9.80;;;14.80;80.80;;;;;;4925280;28;20499;-45
2021/09/03 04:24:09;;;;;;;12.30;9.47;;;14.80;80.90;;;;;;4926632;29;20845;-45
2021/09/03 04:26:36;;;;;;;13.43;7.83;;;14.90;80.90;;;;;;4927190;29;20456;-44
2021/09/03 04:29:03;;;;;;;11.77;8.23;;;14.80;80.80;;;;;;4927381;29;20463;-44
2021/09/03 04:31:30;;;;;;;13.03;9.27;;;14.80;80.90;;;;;;4927042;28;20471;-44
2021/09/03 04:33:57;;;;;;;10.90;8.70;;;14.80;80.90;;;;;;4907265;29;21020;-44
2021/09/03 04:36:23;;;;;;;10.93;8.67;;;14.80;81.00;;;;;;4926693;29;20472;-44
2021/09/03 04:38:50;;;;;;;12.57;9.03;;;14.80;81.10;;;;;;4921890;29;20468;-45
2021/09/03 04:41:17;;;;;;;12.37;8.47;;;14.80;81.10;;;;;;4930081;29;20882;-44
2021/09/03 04:43:49;;;;;;;12.27;8.60;;;14.80;81.20;;;;;;4928235;29;20464;-44
2021/09/03 04:46:15;;;;;;;13.47;9.70;;;14.80;81.20;;;;;;4923966;29;20462;-44
2021/09/03 04:48:42;;;;;;;15.63;9.90;;;14.80;81.30;;;;;;4923560;29;20543;-45
2021/09/03 04:51:09;;;;;;;12.00;9.47;;;14.80;81.50;;;;;;4924826;29;21165;-44
2021/09/03 04:53:35;;;;;;;10.80;8.30;;;14.80;81.40;;;;;;4930017;29;20464;-44
2021/09/03 04:56:02;;;;;;;12.33;8.60;;;14.80;81.40;;;;;;4926807;29;20469;-44
2021/09/03 04:58:29;;;;;;;11.77;9.70;;;14.80;81.60;;;;;;4926050;29;20461;-44
2021/09/03 05:00:56;;;;;;;14.90;10.27;;;14.80;81.60;;;;;;4923995;29;20488;-45
2021/09/03 05:03:23;;;;;;;14.37;10.10;;;14.70;81.60;;;;;;4925482;29;20464;-44
2021/09/03 05:05:50;;;;;;;11.93;9.00;;;14.80;81.70;;;;;;4928088;29;20472;-44
2021/09/03 05:08:16;;;;;;;11.47;8.83;;;14.70;81.70;;;;;;4928472;29;20452;-44
2021/09/03 05:10:43;;;;;;;14.90;10.17;;;14.80;81.60;;;;;;4926270;29;20460;-44
2021/09/03 05:13:10;;;;;;;14.07;9.63;;;14.70;81.70;;;;;;4923519;29;20530;-44
2021/09/03 05:15:40;;;;;;;15.87;9.80;;;14.70;81.80;;;;;;4924785;28;20907;-44
2021/09/03 05:18:07;;;;;;;14.40;10.30;;;14.70;81.90;;;;;;4921468;29;20464;-44
2021/09/03 05:20:33;;;;;;;17.80;10.90;;;14.70;82.00;;;;;;4927277;29;20488;-44
2021/09/03 05:23:00;;;;;;;13.30;10.50;;;14.70;82.20;;;;;;4927862;29;20460;-44
2021/09/03 05:25:27;;;;;;;15.10;10.57;;;14.80;82.30;;;;;;4930479;29;20460;-44
2021/09/03 05:27:54;;;;;;;15.67;10.40;;;14.80;82.40;;;;;;4929788;29;20476;-44
2021/09/03 05:30:21;;;;;;;13.27;10.80;;;14.80;82.50;;;;;;4931360;29;20471;-44
2021/09/03 05:32:48;;;;;;;14.00;10.30;;;14.80;82.70;;;;;;4927906;29;20467;-44
2021/09/03 05:35:15;;;;;;;16.63;11.10;;;14.90;83.00;;;;;;4930243;29;20468;-44
2021/09/03 05:37:42;;;;;;;17.60;11.17;;;14.90;83.20;;;;;;4925323;29;20475;-45
2021/09/03 05:40:09;;;;;;;14.90;11.63;;;15.00;83.60;;;;;;4923497;29;20464;-44
2021/09/03 05:42:36;;;;;;;14.87;10.63;;;15.00;83.60;;;;;;4930252;29;20499;-44
2021/09/03 05:45:03;;;;;;;19.07;11.97;;;15.00;83.60;;;;;;4927152;29;20471;-44
2021/09/03 05:47:31;;;;;;;13.00;10.37;;;15.10;83.60;;;;;;4929760;29;20464;-44
2021/09/03 05:49:58;;;;;;;16.37;11.60;;;15.10;83.60;;;;;;4930991;29;20495;-44
2021/09/03 05:52:25;;;;;;;18.27;11.20;;;15.10;83.60;;;;;;4931140;29;20468;-45
2021/09/03 05:54:51;;;;;;;17.47;11.57;;;15.20;83.60;;;;;;4929862;29;20459;-44
2021/09/03 05:57:18;;;;;;;18.13;11.80;;;15.30;83.70;;;;;;4928839;29;20470;-45
2021/09/03 05:59:45;;;;;;;15.03;11.80;;;15.40;83.70;;;;;;4932125;28;20467;-45
2021/09/03 06:02:12;;;;;;;18.67;12.00;;;15.40;83.60;;;;;;4927001;29;20499;-45
2021/09/03 06:04:39;;;;;;;18.67;11.53;;;15.50;83.50;;;;;;4929392;29;20463;-45
2021/09/03 06:07:05;;;;;;;15.20;10.67;;;15.60;83.10;;;;;;4935204;29;20538;-44
2021/09/03 06:09:32;;;;;;;15.60;11.03;;;15.60;83.10;;;;;;4932825;29;20460;-44
2021/09/03 06:11:59;;;;;;;16.43;10.70;;;15.70;83.10;;;;;;4928285;29;20884;-44
2021/09/03 06:14:26;;;;;;;17.13;12.07;;;15.70;82.90;;;;;;4914727;29;20491;-45
2021/09/03 06:16:53;;;;;;;13.10;10.07;;;15.80;82.80;;;;;;4931911;29;20899;-45
2021/09/03 06:19:20;;;;;;;15.67;10.60;;;15.80;82.50;;;;;;4930383;29;20471;-45
2021/09/03 06:21:47;;;;;;;18.40;11.53;;;15.90;82.40;;;;;;4929522;28;20502;-45
2021/09/03 06:24:28;;;;;;;14.07;10.60;;;16.00;82.10;;;;;;4929718;29;20458;-45
2021/09/03 06:26:56;;;;;;;15.13;11.20;;;16.00;82.10;;;;;;4926182;29;20481;-44
2021/09/03 06:32:22;;;;;;;20.50;11.70;;;16.10;81.80;;;;;;4926116;29;20472;-45
2021/09/03 06:34:56;;;;;;;16.40;11.40;;;16.20;81.60;;;;;;4927706;29;20506;-45
2021/09/03 06:37:25;;;;;;;15.50;10.73;;;16.20;81.60;;;;;;4926294;29;20992;-44
2021/09/03 06:39:53;;;;;;;15.40;10.40;;;16.30;81.40;;;;;;4927340;29;20518;-45
2021/09/03 06:42:21;;;;;;;17.07;10.30;;;16.40;81.30;;;;;;4928460;29;20896;-45
2021/09/03 06:44:48;;;;;;;15.20;11.23;;;16.40;81.20;;;;;;4928279;29;20471;-45
2021/09/03 06:47:16;;;;;;;15.23;10.43;;;16.50;80.80;;;;;;4927887;29;20456;-45
2021/09/03 06:49:44;;;;;;;13.60;10.80;;;16.50;80.90;;;;;;4929145;29;20467;-45
2021/09/03 06:52:13;;;;;;;13.63;10.37;;;16.60;80.90;;;;;;4928251;29;20475;-45
2021/09/03 06:54:40;;;;;;;16.23;11.07;;;16.60;80.70;;;;;;4927572;29;20562;-45
2021/09/03 06:57:07;;;;;;;16.37;10.50;;;16.70;80.60;;;;;;4923605;29;20992;-45
2021/09/03 06:59:34;;;;;;;16.27;10.60;;;16.80;80.40;;;;;;4930567;29;20457;-45
2021/09/03 07:02:01;;;;;;;14.83;10.63;;;16.90;80.20;;;;;;4927389;29;20488;-44
2021/09/03 07:04:29;;;;;;;16.33;10.03;;;16.90;80.00;;;;;;4924665;29;20531;-45
2021/09/03 07:06:55;;;;;;;20.17;11.80;;;17.00;79.80;;;;;;4926315;29;20460;-45
2021/09/03 07:09:23;;;;;;;19.43;10.27;;;17.10;79.30;;;;;;4926910;29;21075;-45
2021/09/03 07:11:51;;;;;;;40.20;13.90;;;17.20;79.10;;;;;;4926933;29;20472;-45
2021/09/03 07:14:19;;;;;;;19.93;10.37;;;17.30;78.20;;;;;;4928130;29;20562;-45
2021/09/03 07:16:46;;;;;;;15.20;11.20;;;17.40;78.00;;;;;;4923943;29;20923;-45
2021/09/03 07:19:12;;;;;;;13.63;10.27;;;17.50;78.00;;;;;;4926474;29;20470;-45
2021/09/03 07:21:39;;;;;;;15.40;11.20;;;17.60;77.20;;;;;;4925404;29;20496;-45
2021/09/03 07:24:06;;;;;;;16.03;10.43;;;17.80;77.00;;;;;;4926589;29;20476;-46
2021/09/03 07:26:33;;;;;;;13.33;9.80;;;17.90;76.60;;;;;;4932078;29;20840;-45
2021/09/03 07:29:03;;;;;;;20.90;10.07;;;18.00;76.00;;;;;;4931202;29;21013;-45
2021/09/03 07:31:30;;;;;;;13.00;10.27;;;18.10;75.80;;;;;;4928701;28;20468;-45
2021/09/03 07:34:00;;;;;;;13.97;9.70;;;18.30;75.60;;;;;;4922190;29;20461;-44
2021/09/03 07:36:27;;;;;;;15.50;9.27;;;18.40;75.50;;;;;;4931364;28;20459;-44
2021/09/03 07:38:54;;;;;;;8.77;7.77;;;18.60;74.70;;;;;;4926593;29;20871;-45
2021/09/03 07:41:23;;;;;;;11.43;8.60;;;18.80;73.80;;;;;;4927459;29;20488;-44
2021/09/03 07:43:50;;;;;;;13.40;9.17;;;19.00;73.50;;;;;;4923389;29;20803;-44
2021/09/03 07:46:17;;;;;;;21.47;9.50;;;19.20;72.80;;;;;;4930626;29;20920;-45
2021/09/03 07:48:44;;;;;;;8.60;7.63;;;19.40;71.60;;;;;;4923956;29;20459;-45
2021/09/03 07:51:10;;;;;;;13.87;7.90;;;19.60;71.00;;;;;;4928196;29;20479;-45
2021/09/03 07:53:37;;;;;;;16.30;8.40;;;19.70;70.60;;;;;;4926371;29;20468;-45
2021/09/03 07:56:05;;;;;;;14.10;8.80;;;19.90;69.20;;;;;;4926195;29;21072;-45
2021/09/03 07:58:31;;;;;;;9.80;8.20;;;20.00;68.70;;;;;;4927550;29;20849;-45
2021/09/03 08:01:00;;;;;;;11.20;7.70;;;20.20;68.40;;;;;;4926953;29;20962;-45
2021/09/03 08:03:28;;;;;;;9.90;7.20;;;20.30;68.50;;;;;;4933347;29;20456;-45
2021/09/03 08:05:55;;;;;;;9.23;7.33;;;20.50;68.10;;;;;;4922468;29;20460;-45
2021/09/03 08:08:22;;;;;;;13.23;7.53;;;20.80;67.50;;;;;;4931310;29;20455;-46
2021/09/03 08:10:49;;;;;;;11.07;7.50;;;21.00;67.60;;;;;;4923866;29;20457;-47
2021/09/03 08:13:16;;;;;;;8.47;7.57;;;21.20;66.10;;;;;;4926251;29;20491;-45
2021/09/03 08:15:45;;;;;;;8.73;7.70;;;21.40;65.40;;;;;;4929011;29;20476;-45
2021/09/03 08:18:12;;;;;;;8.87;7.23;;;21.60;65.00;;;;;;4931704;29;20467;-46
2021/09/03 08:20:39;;;;;;;11.77;9.07;;;21.70;64.10;;;;;;4930707;29;20460;-45
2021/09/03 08:23:06;;;;;;;8.30;6.60;;;21.90;63.60;;;;;;4928631;29;20522;-46
2021/09/03 08:25:33;;;;;;;9.23;7.17;;;22.10;63.40;;;;;;4927036;29;20965;-45
2021/09/03 08:28:00;;;;;;;8.23;6.20;;;22.30;63.20;;;;;;4926017;29;20467;-45
2021/09/03 08:30:29;;;;;;;8.87;7.00;;;22.50;63.00;;;;;;4931476;29;20966;-46
2021/09/03 08:32:56;;;;;;;13.97;8.47;;;22.70;62.10;;;;;;4925292;29;20487;-45
2021/09/03 08:35:23;;;;;;;8.87;6.73;;;22.90;60.80;;;;;;4925098;29;20463;-45
2021/09/03 08:37:51;;;;;;;8.93;7.07;;;23.10;60.60;;;;;;4927276;29;20456;-45
2021/09/03 08:40:20;;;;;;;13.13;7.10;;;23.30;60.10;;;;;;4926083;29;20451;-45
2021/09/03 08:42:48;;;;;;;9.53;7.67;;;23.50;59.50;;;;;;4929820;28;20495;-45
2021/09/03 08:45:15;;;;;;;8.40;6.63;;;23.70;58.80;;;;;;4937950;28;20448;-45
2021/09/03 08:47:43;;;;;;;12.43;6.63;;;23.90;58.20;;;;;;4927355;29;20468;-46
2021/09/03 08:50:17;;;;;;;9.20;7.00;;;24.20;58.20;;;;;;4944092;28;20451;-46
2021/09/03 08:52:48;;;;;;;6.87;6.07;;;24.40;57.00;;;;;;4925530;29;20557;-45
2021/09/03 08:55:17;;;;;;;8.30;7.47;;;24.70;56.10;;;;;;4927318;29;20468;-46
2021/09/03 08:57:47;;;;;;;8.97;7.23;;;24.90;55.80;;;;;;4927280;29;21256;-46
2021/09/03 09:00:25;;;;;;;8.30;7.47;;;25.00;55.20;;;;;;4929770;29;20460;-46
2021/09/03 09:03:03;;;;;;;7.70;6.77;;;25.20;54.60;;;;;;4929840;29;20480;-46
2021/09/03 09:05:53;;;;;;;8.03;7.23;;;25.50;54.30;;;;;;4931712;29;20514;-46
2021/09/03 09:08:25;;;;;;;6.53;5.90;;;25.80;53.90;;;;;;4932508;29;20954;-45
2021/09/03 09:10:54;;;;;;;8.23;7.07;;;26.10;53.80;;;;;;4930936;29;20455;-46
2021/09/03 09:13:24;;;;;;;8.93;6.93;;;26.40;52.80;;;;;;4931152;29;20469;-46
2021/09/03 09:16:03;;;;;;;11.20;6.63;;;26.70;51.30;;;;;;4929781;29;20462;-45
2021/09/03 09:18:41;;;;;;;7.83;5.90;;;26.90;50.90;;;;;;4936688;29;20447;-47
2021/09/03 09:21:17;;;;;;;6.80;6.17;;;27.10;50.50;;;;;;4931341;29;20461;-47
2021/09/03 09:23:57;;;;;;;11.40;6.10;;;27.40;50.10;;;;;;4929172;29;20541;-47
2021/09/03 09:26:27;;;;;;;9.50;6.80;;;27.70;49.60;;;;;;4930668;29;20459;-46
2021/09/03 09:28:55;;;;;;;7.70;6.30;;;27.80;49.10;;;;;;4930582;29;20759;-46
2021/09/03 09:31:35;;;;;;;6.90;6.20;;;28.00;49.10;;;;;;4929796;29;20218;-47
2021/09/03 09:34:21;;;;;;;9.90;6.67;;;28.10;49.00;;;;;;4920296;29;20204;-46
2021/09/03 09:36:50;;;;;;;9.70;6.13;;;28.20;49.20;;;;;;4930166;29;20236;-46
2021/09/03 09:39:18;;;;;;;6.43;5.83;;;28.10;49.60;;;;;;4927716;29;20204;-46
2021/09/03 09:41:46;;;;;;;6.90;5.60;;;27.90;49.30;;;;;;4927957;29;20731;-46
2021/09/03 09:44:26;;;;;;;9.87;6.27;;;27.60;49.30;;;;;;4933842;29;20580;-46
2021/09/03 09:47:08;;;;;;;9.60;6.97;;;27.50;49.30;;;;;;4930136;29;20567;-46
2021/09/03 09:49:35;;;;;;;7.30;6.03;;;27.00;49.20;;;;;;4928959;29;20296;-46
2021/09/03 09:52:03;;;;;;;7.20;6.50;;;26.60;50.10;;;;;;4932089;29;20242;-46
2021/09/03 09:54:30;;;;;;;8.47;6.40;;;26.30;50.70;;;;;;4929097;29;20463;-46
2021/09/03 09:57:02;;;;;;;10.87;6.90;;;26.10;51.40;;;;;;4926110;29;20458;-47
2021/09/03 09:59:32;;;;;;;6.40;5.80;;;26.20;51.60;;;;;;4928359;29;20466;-47
2021/09/03 10:02:02;;;;;;;8.57;6.60;;;26.30;51.40;;;;;;4941160;28;20495;-47
2021/09/03 10:04:33;;;;;;;7.37;5.43;;;26.30;51.30;;;;;;4926544;29;20456;-45
2021/09/03 10:07:04;;;;;;;6.47;5.80;;;26.40;50.70;;;;;;4927206;29;20467;-46
2021/09/03 10:09:31;;;;;;;8.70;5.60;;;26.60;50.30;;;;;;4927987;29;20451;-46
2021/09/03 10:11:59;;;;;;;7.57;5.73;;;27.00;50.60;;;;;;4928334;29;20618;-46
2021/09/03 10:14:29;;;;;;;6.60;5.60;;;27.30;50.50;;;;;;4924839;29;20483;-46
2021/09/03 10:16:57;;;;;;;6.33;5.57;;;27.80;49.70;;;;;;4932661;29;20219;-46
2021/09/03 10:19:30;;;;;;;7.10;6.40;;;28.30;48.40;;;;;;4922681;29;20216;-46
2021/09/03 10:22:12;;;;;;;11.60;5.73;;;28.80;47.40;;;;;;4925783;29;20242;-46
2021/09/03 10:24:42;;;;;;;7.03;5.95;;;29.30;45.70;;;;;;4931901;29;20225;-46
2021/09/03 10:27:10;;;;;;;5.85;5.28;;;29.60;45.00;;;;;;4932543;29;20219;-46
2021/09/03 10:29:37;;;;;;;7.03;5.15;;;29.80;44.80;;;;;;4930838;29;20203;-46
2021/09/03 10:32:07;;;;;;;5.75;5.15;;;30.10;44.40;;;;;;4927248;29;20216;-46
2021/09/03 10:34:45;;;;;;;6.60;5.63;;;30.30;43.80;;;;;;4926941;28;20567;-45
2021/09/03 10:37:17;;;;;;;5.30;4.80;;;30.30;42.90;;;;;;4929125;28;20218;-46
2021/09/03 10:39:46;;;;;;;5.82;5.22;;;30.50;41.90;;;;;;4927693;29;20219;-46
2021/09/03 10:45:02;;;;;;;7.68;5.22;;;30.80;42.00;;;;;;4926085;29;20575;-46
2021/09/03 10:47:30;;;;;;;7.57;4.97;;;31.00;42.20;;;;;;4928409;29;20331;-46
2021/09/03 10:49:57;;;;;;;6.65;5.95;;;31.20;42.20;;;;;;4930089;29;20214;-46
2021/09/03 10:52:24;;;;;;;5.85;5.25;;;31.10;40.80;;;;;;4928061;28;20666;-46
2021/09/03 10:54:51;;;;;;;6.15;5.20;;;30.90;40.90;;;;;;4927065;29;20218;-45
2021/09/03 10:57:18;;;;;;;5.82;5.00;;;30.80;41.60;;;;;;4929364;29;20238;-45
2021/09/03 11:00:17;;;;;;;5.15;4.63;;;30.70;41.90;;;;;;4941430;28;20242;-45
2021/09/03 11:02:44;;;;;;;5.75;4.88;;;30.40;41.90;;;;;;4928023;29;20600;-46
2021/09/03 11:05:13;;;;;;;7.13;4.75;;;30.00;43.00;;;;;;4923796;29;20725;-45
2021/09/03 11:07:42;;;;;;;5.47;4.90;;;29.70;44.10;;;;;;4925468;29;20215;-45
2021/09/03 11:10:20;;;;;;;7.13;5.27;;;29.30;44.20;;;;;;4926716;29;20210;-45
2021/09/03 11:12:57;;;;;;;6.70;5.43;;;28.70;44.20;;;;;;4924912;29;20677;-46
2021/09/03 11:15:29;;;;;;;5.20;4.67;;;28.30;44.90;;;;;;4923267;29;20211;-45
2021/09/03 11:17:56;;;;;;;5.83;4.57;;;28.00;45.40;;;;;;4923876;29;20219;-46
2021/09/03 11:20:23;;;;;;;4.23;3.80;;;27.70;45.70;;;;;;4927139;28;20218;-46
2021/09/03 11:22:50;;;;;;;4.90;4.40;;;27.50;45.30;;;;;;4927455;29;20494;-46
2021/09/03 11:25:16;;;;;;;5.07;4.67;;;27.20;45.50;;;;;;4931150;29;20210;-46
2021/09/03 11:27:43;;;;;;;4.67;4.27;;;27.00;45.30;;;;;;4924880;29;20478;-46
2021/09/03 11:30:13;;;;;;;4.13;3.70;;;26.80;45.60;;;;;;4927258;29;20467;-46
2021/09/03 11:32:40;;;;;;;5.70;4.90;;;26.60;46.10;;;;;;4931071;29;20454;-46
2021/09/03 11:35:11;;;;;;;6.70;4.40;;;26.40;46.00;;;;;;4928734;29;20953;-46
2021/09/03 11:37:50;;;;;;;4.47;3.63;;;26.30;45.20;;;;;;4923221;29;20470;-46
2021/09/03 11:40:16;;;;;;;4.10;3.70;;;26.30;45.40;;;;;;4928999;29;20529;-46
2021/09/03 11:42:50;;;;;;;5.40;4.20;;;26.20;45.80;;;;;;4928623;29;21005;-46
2021/09/03 11:45:30;;;;;;;5.50;3.60;;;25.90;46.50;;;;;;4928688;29;20454;-47
2021/09/03 11:48:05;;;;;;;3.80;3.40;;;25.90;46.50;;;;;;4925744;29;20497;-46
2021/09/03 11:50:35;;;;;;;4.13;3.43;;;25.80;46.20;;;;;;4928172;29;20455;-46
2021/09/03 11:53:05;;;;;;;6.53;3.90;;;25.80;46.80;;;;;;4925896;29;20506;-46
2021/09/03 11:55:35;;;;;;;6.70;5.50;;;25.70;47.10;;;;;;4926137;29;21016;-46
2021/09/03 11:58:14;;;;;;;3.53;3.23;;;25.60;46.50;;;;;;4927952;29;20925;-46
2021/09/03 12:00:45;;;;;;;4.60;3.50;;;25.60;45.90;;;;;;4928541;29;21089;-46
2021/09/03 12:03:18;;;;;;;8.20;4.10;;;25.50;46.40;;;;;;4927886;29;20523;-46
2021/09/03 12:05:47;;;;;;;4.60;3.80;;;25.40;46.60;;;;;;4925983;29;20514;-46
2021/09/03 12:08:15;;;;;;;5.80;4.07;;;25.40;47.30;;;;;;4931769;29;20461;-46
2021/09/03 12:10:57;;;;;;;10.93;4.50;;;25.40;47.60;;;;;;4929506;29;20473;-47
2021/09/03 12:13:43;;;;;;;4.50;3.30;;;25.30;47.60;;;;;;4930086;29;20487;-46
2021/09/03 12:16:21;;;;;;;10.37;4.43;;;25.30;47.50;;;;;;4930034;29;20949;-46
2021/09/03 12:18:53;;;;;;;5.33;4.33;;;25.20;48.40;;;;;;4927701;29;20550;-45
2021/09/03 12:21:23;;;;;;;5.83;4.67;;;25.30;48.40;;;;;;4922115;29;20479;-46
2021/09/03 12:23:52;;;;;;;4.83;4.33;;;25.30;49.30;;;;;;4928391;29;20503;-46
2021/09/03 12:26:21;;;;;;;14.40;5.37;;;25.30;47.90;;;;;;4926101;29;20454;-46
2021/09/03 12:28:55;;;;;;;6.80;4.40;;;25.20;47.50;;;;;;4928416;29;20451;-46
2021/09/03 12:31:28;;;;;;;5.40;4.60;;;25.20;47.60;;;;;;4929973;29;20527;-46
2021/09/03 12:33:56;;;;;;;5.33;4.50;;;25.20;47.70;;;;;;4926357;29;20471;-46
2021/09/03 12:36:27;;;;;;;8.00;3.90;;;25.20;47.90;;;;;;4925547;29;20451;-46
2021/09/03 12:39:02;;;;;;;5.60;4.10;;;25.20;47.60;;;;;;4925161;29;20479;-46
2021/09/03 12:41:34;;;;;;;5.07;4.17;;;25.20;47.80;;;;;;4926459;29;20959;-46
2021/09/03 12:44:04;;;;;;;8.93;4.30;;;25.20;47.90;;;;;;4927033;29;20490;-46
2021/09/03 12:46:39;;;;;;;6.80;3.90;;;25.20;48.00;;;;;;4927565;29;20440;-46
2021/09/03 12:49:15;;;;;;;4.30;3.70;;;25.20;48.00;;;;;;4921838;29;20841;-46
2021/09/03 12:51:45;;;;;;;4.93;4.23;;;25.20;48.10;;;;;;4925688;29;20971;-46
2021/09/03 12:54:14;;;;;;;4.27;3.60;;;25.20;47.40;;;;;;4927514;29;20456;-46